createdAt,value
2022-12-01T00:01:06.753Z,22.74
2022-12-01T00:03:33.744Z,22.77
2022-12-01T00:06:01.246Z,22.77
2022-12-01T00:08:28.066Z,22.76
2022-12-01T00:10:54.662Z,22.77
2022-12-01T00:13:21.551Z,22.77
2022-12-01T00:15:48.119Z,22.79
2022-12-01T00:18:14.748Z,22.78
2022-12-01T00:20:41.691Z,22.78
2022-12-01T00:23:08.460Z,22.78
2022-12-01T00:25:35.147Z,22.79
2022-12-01T00:28:01.752Z,22.80
2022-12-01T00:30:28.511Z,22.78
2022-12-01T00:32:55.168Z,22.79
2022-12-01T00:35:21.747Z,22.80
2022-12-01T00:37:48.383Z,22.77
2022-12-01T00:40:15.045Z,22.77
2022-12-01T00:42:41.868Z,22.73
2022-12-01T00:45:08.795Z,22.73
2022-12-01T00:47:35.968Z,22.71
2022-12-01T00:50:03.012Z,22.67
2022-12-01T00:52:29.663Z,22.66
2022-12-01T00:54:56.343Z,22.65
2022-12-01T00:57:23.024Z,22.62
2022-12-01T00:59:50.068Z,22.58
2022-12-01T01:02:17.029Z,22.52
2022-12-01T01:04:43.654Z,22.46
2022-12-01T01:07:10.419Z,22.41
2022-12-01T01:09:37.242Z,22.35
2022-12-01T01:12:03.940Z,22.30
2022-12-01T01:14:30.503Z,22.24
2022-12-01T01:16:57.174Z,22.24
2022-12-01T01:19:24.315Z,22.21
2022-12-01T01:21:50.994Z,22.16
2022-12-01T01:24:17.703Z,22.14
2022-12-01T01:26:44.410Z,22.12
2022-12-01T01:29:11.031Z,22.09
2022-12-01T01:31:37.985Z,22.07
2022-12-01T01:34:05.057Z,22.05
2022-12-01T01:36:31.941Z,22.01
2022-12-01T01:38:58.561Z,22.02
2022-12-01T01:41:25.333Z,21.99
2022-12-01T01:43:53.460Z,21.97
2022-12-01T01:46:24.452Z,21.97
2022-12-01T01:48:51.105Z,21.93
2022-12-01T01:51:19.288Z,21.92
2022-12-01T01:53:49.643Z,21.90
2022-12-01T01:56:16.863Z,21.86
2022-12-01T01:58:44.248Z,21.85
2022-12-01T02:01:10.943Z,21.85
2022-12-01T02:03:38.344Z,21.83
2022-12-01T02:06:06.561Z,21.82
2022-12-01T02:08:34.569Z,21.80
2022-12-01T02:11:10.427Z,21.79
2022-12-01T02:13:51.592Z,21.78
2022-12-01T02:16:39.637Z,21.74
2022-12-01T02:19:25.195Z,21.73
2022-12-01T02:22:03.744Z,21.71
2022-12-01T02:24:30.311Z,21.70
2022-12-01T02:27:05.084Z,21.65
2022-12-01T02:29:31.667Z,21.64
2022-12-01T02:32:07.321Z,21.62
2022-12-01T02:34:41.464Z,21.60
2022-12-01T02:37:16.508Z,21.55
2022-12-01T02:39:49.008Z,21.51
2022-12-01T02:42:50.061Z,21.50
2022-12-01T02:45:22.601Z,21.47
2022-12-01T02:47:52.564Z,21.45
2022-12-01T02:50:20.625Z,21.41
2022-12-01T02:52:47.470Z,21.40
2022-12-01T02:55:14.118Z,21.37
2022-12-01T02:57:40.700Z,21.35
2022-12-01T03:00:07.710Z,21.30
2022-12-01T03:03:00.559Z,21.30
2022-12-01T03:05:30.296Z,21.27
2022-12-01T03:07:57.601Z,21.26
2022-12-01T03:10:27.326Z,21.23
2022-12-01T03:12:56.723Z,21.19
2022-12-01T03:15:26.236Z,21.19
2022-12-01T03:17:58.850Z,21.18
2022-12-01T03:20:35.248Z,21.16
2022-12-01T03:23:08.954Z,21.12
2022-12-01T03:25:36.764Z,21.11
2022-12-01T03:28:22.138Z,21.07
2022-12-01T03:30:52.844Z,21.05
2022-12-01T03:33:24.114Z,21.04
2022-12-01T03:36:06.014Z,21.02
2022-12-01T03:38:37.711Z,21.00
2022-12-01T03:41:12.507Z,20.97
2022-12-01T03:43:42.192Z,20.94
2022-12-01T03:46:14.796Z,20.92
2022-12-01T03:48:42.081Z,20.90
2022-12-01T03:51:27.562Z,20.88
2022-12-01T03:54:08.266Z,20.85
2022-12-01T03:56:38.828Z,20.82
2022-12-01T03:59:08.871Z,20.81
2022-12-01T04:01:36.157Z,20.80
2022-12-01T04:04:12.717Z,20.80
2022-12-01T04:06:40.566Z,20.75
2022-12-01T04:09:07.142Z,20.74
2022-12-01T04:11:52.137Z,20.72
2022-12-01T04:14:18.727Z,20.72
2022-12-01T04:16:45.403Z,20.68
2022-12-01T04:19:11.983Z,20.67
2022-12-01T04:21:38.595Z,20.66
2022-12-01T04:24:05.313Z,20.63
2022-12-01T04:26:35.927Z,20.62
2022-12-01T04:29:08.486Z,20.61
2022-12-01T04:31:35.719Z,20.59
2022-12-01T04:34:02.387Z,20.59
2022-12-01T04:36:33.380Z,20.58
2022-12-01T04:39:00.079Z,20.56
2022-12-01T04:41:26.895Z,20.55
2022-12-01T04:43:54.882Z,20.53
2022-12-01T04:46:21.901Z,20.49
2022-12-01T04:48:48.699Z,20.48
2022-12-01T04:51:15.300Z,20.47
2022-12-01T04:53:42.043Z,20.46
2022-12-01T04:56:08.657Z,20.44
2022-12-01T04:58:37.950Z,20.41
2022-12-01T05:01:06.162Z,20.43
2022-12-01T05:03:33.064Z,20.42
2022-12-01T05:06:07.689Z,20.39
2022-12-01T05:08:36.474Z,20.36
2022-12-01T05:11:03.233Z,20.36
2022-12-01T05:13:29.854Z,20.35
2022-12-01T05:16:16.801Z,20.33
2022-12-01T05:18:43.460Z,20.36
2022-12-01T05:21:11.199Z,20.33
2022-12-01T05:23:38.961Z,20.37
2022-12-01T05:26:06.718Z,20.44
2022-12-01T05:28:33.710Z,20.54
2022-12-01T05:31:00.363Z,20.64
2022-12-01T05:33:27.619Z,20.72
2022-12-01T05:35:54.734Z,20.76
2022-12-01T05:38:21.584Z,20.81
2022-12-01T05:40:52.292Z,20.82
2022-12-01T05:43:21.655Z,20.86
2022-12-01T05:45:52.059Z,20.91
2022-12-01T05:48:22.335Z,20.96
2022-12-01T05:50:48.917Z,20.99
2022-12-01T05:53:15.808Z,21.04
2022-12-01T05:55:42.591Z,21.09
2022-12-01T05:58:09.989Z,21.13
2022-12-01T06:00:42.281Z,21.18
2022-12-01T06:03:12.076Z,21.23
2022-12-01T06:05:38.778Z,21.27
2022-12-01T06:08:05.539Z,21.31
2022-12-01T06:10:32.177Z,21.36
2022-12-01T06:12:58.781Z,21.41
2022-12-01T06:15:25.349Z,21.45
2022-12-01T06:17:51.941Z,21.49
2022-12-01T06:20:18.669Z,21.53
2022-12-01T06:22:45.262Z,21.56
2022-12-01T06:25:11.942Z,21.61
2022-12-01T06:27:38.616Z,21.65
2022-12-01T06:30:05.556Z,21.71
2022-12-01T06:32:32.160Z,21.74
2022-12-01T06:34:58.868Z,21.79
2022-12-01T06:37:26.838Z,21.84
2022-12-01T06:39:53.459Z,21.88
2022-12-01T06:42:20.039Z,21.91
2022-12-01T06:44:46.602Z,21.94
2022-12-01T06:47:13.356Z,21.98
2022-12-01T06:49:39.970Z,22.01
2022-12-01T06:52:06.604Z,22.02
2022-12-01T06:54:33.701Z,22.05
2022-12-01T06:57:00.369Z,22.09
2022-12-01T06:59:27.353Z,22.11
2022-12-01T07:01:59.834Z,22.13
2022-12-01T07:04:27.717Z,22.16
2022-12-01T07:06:54.609Z,22.18
2022-12-01T07:09:22.183Z,22.21
2022-12-01T07:11:49.138Z,22.23
2022-12-01T07:14:22.633Z,22.25
2022-12-01T07:16:49.585Z,22.26
2022-12-01T07:19:16.555Z,22.28
2022-12-01T07:21:43.555Z,22.35
2022-12-01T07:24:10.520Z,22.33
2022-12-01T07:26:39.241Z,22.35
2022-12-01T07:29:06.097Z,22.38
2022-12-01T07:31:33.351Z,22.42
2022-12-01T07:34:00.036Z,22.46
2022-12-01T07:36:26.657Z,22.31
2022-12-01T07:38:53.280Z,22.09
2022-12-01T07:41:20.238Z,22.13
2022-12-01T07:43:48.279Z,22.17
2022-12-01T07:46:23.253Z,22.20
2022-12-01T07:48:51.180Z,22.20
2022-12-01T07:51:17.983Z,22.21
2022-12-01T07:53:47.070Z,22.20
2022-12-01T07:56:13.858Z,22.18
2022-12-01T07:58:42.892Z,22.16
2022-12-01T08:01:10.672Z,22.15
2022-12-01T08:03:37.384Z,22.12
2022-12-01T08:06:04.844Z,22.12
2022-12-01T08:08:44.586Z,22.10
2022-12-01T08:11:12.547Z,22.08
2022-12-01T08:13:39.603Z,22.08
2022-12-01T08:16:06.721Z,22.07
2022-12-01T08:18:38.606Z,22.07
2022-12-01T08:21:06.092Z,22.05
2022-12-01T08:23:33.211Z,22.06
2022-12-01T08:26:04.290Z,22.06
2022-12-01T08:28:40.406Z,22.05
2022-12-01T08:31:17.078Z,22.06
2022-12-01T08:33:43.840Z,22.04
2022-12-01T08:36:10.505Z,22.01
2022-12-01T08:38:39.304Z,22.00
2022-12-01T08:41:07.430Z,22.00
2022-12-01T08:43:56.467Z,21.99
2022-12-01T08:46:20.888Z,21.97
2022-12-01T08:48:47.532Z,21.95
2022-12-01T08:51:15.351Z,21.93
2022-12-01T08:53:46.394Z,21.90
2022-12-01T08:56:15.605Z,21.91
2022-12-01T08:58:42.328Z,21.88
2022-12-01T09:01:10.178Z,21.85
2022-12-01T09:03:37.369Z,21.85
2022-12-01T09:06:20.365Z,21.85
2022-12-01T09:08:47.402Z,21.84
2022-12-01T09:11:15.332Z,21.83
2022-12-01T09:13:42.265Z,21.82
2022-12-01T09:16:13.525Z,21.82
2022-12-01T09:18:40.723Z,21.84
2022-12-01T09:21:10.960Z,21.85
2022-12-01T09:23:37.727Z,21.86
2022-12-01T09:26:04.336Z,21.88
2022-12-01T09:28:41.548Z,21.86
2022-12-01T09:31:09.429Z,21.89
2022-12-01T09:33:36.873Z,21.89
2022-12-01T09:36:04.696Z,21.90
2022-12-01T09:38:40.432Z,21.90
2022-12-01T09:41:21.063Z,21.91
2022-12-01T09:43:50.601Z,21.92
2022-12-01T09:46:21.613Z,21.92
2022-12-01T09:48:49.781Z,21.91
2022-12-01T09:51:17.814Z,21.92
2022-12-01T09:53:45.070Z,21.92
2022-12-01T09:56:19.189Z,21.92
2022-12-01T09:58:46.206Z,21.91
2022-12-01T10:01:17.688Z,21.92
2022-12-01T10:03:50.001Z,21.92
2022-12-01T10:06:28.823Z,21.89
2022-12-01T10:08:58.761Z,21.89
2022-12-01T10:11:28.217Z,21.89
2022-12-01T10:13:54.904Z,21.88
2022-12-01T10:16:28.718Z,21.88
2022-12-01T10:19:01.600Z,21.88
2022-12-01T10:21:49.075Z,21.87
2022-12-01T10:24:18.771Z,21.86
2022-12-01T10:27:08.438Z,21.84
2022-12-01T10:29:47.569Z,21.83
2022-12-01T10:32:23.342Z,21.81
2022-12-01T10:34:49.976Z,21.80
2022-12-01T10:37:24.497Z,21.78
2022-12-01T10:39:52.636Z,21.77
2022-12-01T10:42:24.835Z,21.77
2022-12-01T10:44:54.611Z,21.76
2022-12-01T10:47:22.954Z,21.74
2022-12-01T10:49:49.945Z,21.71
2022-12-01T10:52:42.836Z,21.70
2022-12-01T10:55:29.224Z,21.68
2022-12-01T10:57:57.378Z,21.65
2022-12-01T11:00:51.385Z,21.62
2022-12-01T11:03:23.217Z,21.60
2022-12-01T11:05:54.967Z,21.57
2022-12-01T11:08:44.648Z,21.55
2022-12-01T11:11:40.815Z,21.52
2022-12-01T11:14:17.231Z,21.51
2022-12-01T11:16:45.393Z,21.48
2022-12-01T11:19:27.828Z,21.45
2022-12-01T11:21:56.392Z,21.42
2022-12-01T11:24:26.096Z,21.41
2022-12-01T11:26:52.733Z,21.37
2022-12-01T11:29:36.204Z,21.35
2022-12-01T11:32:15.478Z,21.33
2022-12-01T11:34:48.681Z,21.31
2022-12-01T11:37:17.317Z,21.29
2022-12-01T11:39:44.962Z,21.27
2022-12-01T11:42:14.313Z,21.24
2022-12-01T11:44:51.713Z,21.21
2022-12-01T11:47:24.369Z,21.18
2022-12-01T11:49:58.544Z,21.16
2022-12-01T11:52:25.369Z,21.12
2022-12-01T11:54:56.040Z,21.10
2022-12-01T11:57:37.662Z,21.08
2022-12-01T12:00:18.127Z,21.08
2022-12-01T12:03:05.015Z,21.05
2022-12-01T12:05:41.980Z,21.02
2022-12-01T12:08:14.790Z,21.01
2022-12-01T12:10:44.207Z,20.99
2022-12-01T12:13:10.933Z,20.98
2022-12-01T12:15:40.412Z,20.97
2022-12-01T12:18:07.348Z,20.95
2022-12-01T12:20:43.907Z,20.93
2022-12-01T12:23:10.545Z,20.93
2022-12-01T12:25:37.151Z,20.92
2022-12-01T12:28:16.510Z,20.92
2022-12-01T12:30:51.954Z,20.92
2022-12-01T12:33:36.465Z,20.88
2022-12-01T12:36:29.978Z,20.88
2022-12-01T12:39:12.170Z,20.85
2022-12-01T12:41:46.566Z,20.84
2022-12-01T12:44:24.117Z,20.82
2022-12-01T12:46:56.849Z,20.81
2022-12-01T12:49:29.060Z,20.80
2022-12-01T12:52:08.438Z,20.80
2022-12-01T12:54:41.910Z,20.77
2022-12-01T12:57:21.148Z,20.75
2022-12-01T13:00:00.214Z,20.74
2022-12-01T13:02:27.328Z,20.74
2022-12-01T13:05:07.098Z,20.74
2022-12-01T13:07:33.753Z,20.74
2022-12-01T13:10:07.253Z,20.72
2022-12-01T13:12:39.572Z,20.71
2022-12-01T13:15:06.205Z,20.70
2022-12-01T13:17:41.841Z,20.70
2022-12-01T13:20:19.793Z,20.67
2022-12-01T13:22:47.930Z,20.65
2022-12-01T13:25:16.717Z,20.63
2022-12-01T13:27:44.220Z,20.62
2022-12-01T13:30:19.388Z,20.62
2022-12-01T13:32:46.684Z,20.60
2022-12-01T13:35:19.423Z,20.58
2022-12-01T13:37:46.202Z,20.54
2022-12-01T13:40:23.959Z,20.52
2022-12-01T13:42:56.691Z,20.50
2022-12-01T13:45:23.819Z,20.50
2022-12-01T13:47:52.369Z,20.47
2022-12-01T13:50:39.351Z,20.45
2022-12-01T13:53:25.390Z,20.44
2022-12-01T13:55:59.490Z,20.42
2022-12-01T13:58:47.470Z,20.41
2022-12-01T14:01:20.585Z,20.44
2022-12-01T14:04:01.305Z,20.42
2022-12-01T14:06:38.676Z,20.38
2022-12-01T14:09:07.452Z,20.37
2022-12-01T14:11:34.907Z,20.34
2022-12-01T14:14:07.388Z,20.34
2022-12-01T14:16:53.547Z,20.31
2022-12-01T14:19:38.964Z,20.27
2022-12-01T14:22:06.559Z,20.23
2022-12-01T14:24:43.887Z,20.24
2022-12-01T14:27:14.126Z,20.22
2022-12-01T14:29:48.193Z,20.22
2022-12-01T14:32:18.023Z,20.23
2022-12-01T14:34:44.616Z,20.23
2022-12-01T14:37:18.874Z,20.22
2022-12-01T14:40:04.001Z,20.23
2022-12-01T14:42:51.374Z,20.20
2022-12-01T14:45:20.809Z,20.18
2022-12-01T14:47:51.232Z,20.17
2022-12-01T14:50:46.792Z,20.16
2022-12-01T14:53:16.685Z,20.15
2022-12-01T14:55:48.166Z,20.14
2022-12-01T14:58:17.676Z,20.11
2022-12-01T15:01:04.927Z,20.11
2022-12-01T15:03:51.576Z,20.10
2022-12-01T15:06:19.590Z,20.07
2022-12-01T15:09:04.198Z,20.06
2022-12-01T15:11:33.668Z,20.04
2022-12-01T15:14:00.317Z,20.02
2022-12-01T15:16:29.409Z,20.01
2022-12-01T15:18:56.389Z,19.99
2022-12-01T15:21:27.583Z,19.97
2022-12-01T15:24:01.565Z,19.96
2022-12-01T15:26:32.732Z,19.92
2022-12-01T15:29:11.288Z,19.91
2022-12-01T15:31:38.503Z,19.89
2022-12-01T15:34:05.694Z,19.89
2022-12-01T15:36:32.496Z,19.88
2022-12-01T15:39:06.889Z,19.86
2022-12-01T15:41:34.629Z,19.86
2022-12-01T15:44:03.833Z,19.85
2022-12-01T15:46:37.305Z,19.83
2022-12-01T15:49:30.256Z,19.81
2022-12-01T15:52:17.175Z,19.81
2022-12-01T15:54:47.480Z,19.81
2022-12-01T15:57:18.787Z,19.81
2022-12-01T15:59:47.064Z,19.79
2022-12-01T16:02:13.721Z,19.79
2022-12-01T16:04:40.443Z,19.76
2022-12-01T16:07:08.898Z,19.74
2022-12-01T16:09:40.202Z,19.74
2022-12-01T16:12:09.544Z,19.73
2022-12-01T16:14:36.752Z,19.70
2022-12-01T16:17:04.573Z,19.68
2022-12-01T16:19:32.465Z,19.67
2022-12-01T16:22:11.354Z,19.64
2022-12-01T16:24:43.176Z,19.62
2022-12-01T16:27:20.517Z,19.59
2022-12-01T16:29:58.136Z,19.60
2022-12-01T16:32:27.901Z,19.57
2022-12-01T16:34:54.503Z,19.54
2022-12-01T16:37:22.308Z,19.53
2022-12-01T16:39:49.445Z,19.51
2022-12-01T16:42:17.493Z,19.50
2022-12-01T16:44:45.905Z,19.48
2022-12-01T16:47:23.251Z,19.48
2022-12-01T16:49:50.149Z,19.46
2022-12-01T16:55:03.967Z,19.43
2022-12-01T16:57:30.679Z,19.42
2022-12-01T16:59:57.257Z,19.39
2022-12-01T17:02:23.935Z,19.36
2022-12-01T17:04:50.954Z,19.32
2022-12-01T17:07:18.120Z,19.35
2022-12-01T17:09:44.776Z,19.32
2022-12-01T17:12:11.346Z,19.29
2022-12-01T17:14:38.206Z,19.32
2022-12-01T17:17:04.812Z,19.30
2022-12-01T17:19:31.434Z,19.28
2022-12-01T17:21:58.426Z,19.27
2022-12-01T17:24:26.110Z,19.25
2022-12-01T17:26:52.793Z,19.24
2022-12-01T17:29:19.585Z,19.22
2022-12-01T17:31:58.912Z,19.22
2022-12-01T17:34:25.880Z,19.18
2022-12-01T17:36:52.490Z,19.18
2022-12-01T17:39:19.691Z,19.17
2022-12-01T17:41:46.315Z,19.17
2022-12-01T17:44:13.124Z,19.15
2022-12-01T17:46:41.887Z,19.14
2022-12-01T17:49:10.796Z,19.11
2022-12-01T17:51:37.994Z,19.10
2022-12-01T17:54:04.831Z,19.09
2022-12-01T17:56:31.723Z,19.09
2022-12-01T17:58:58.320Z,19.06
2022-12-01T18:01:29.954Z,19.04
2022-12-01T18:03:57.555Z,19.04
2022-12-01T18:06:25.738Z,19.01
2022-12-01T18:08:57.613Z,19.02
2022-12-01T18:11:30.990Z,19.00
2022-12-01T18:13:58.368Z,19.00
2022-12-01T18:16:26.380Z,18.97
2022-12-01T18:18:53.599Z,18.96
2022-12-01T18:21:21.335Z,18.96
2022-12-01T18:23:51.524Z,18.95
2022-12-01T18:26:19.242Z,18.92
2022-12-01T18:28:45.898Z,18.90
2022-12-01T18:31:14.098Z,18.91
2022-12-01T18:33:42.100Z,18.85
2022-12-01T18:36:12.664Z,18.87
2022-12-01T18:38:40.446Z,18.88
2022-12-01T18:41:07.548Z,18.85
2022-12-01T18:43:34.196Z,18.80
2022-12-01T18:46:02.778Z,18.84
2022-12-01T18:48:30.965Z,18.80
2022-12-01T18:51:01.970Z,18.80
2022-12-01T18:53:28.661Z,18.79
2022-12-01T18:55:55.290Z,18.80
2022-12-01T18:58:21.991Z,18.80
2022-12-01T19:00:48.730Z,18.76
2022-12-01T19:03:16.057Z,18.75
2022-12-01T19:05:45.531Z,18.75
2022-12-01T19:08:13.441Z,18.75
2022-12-01T19:10:40.218Z,18.72
2022-12-01T19:13:06.874Z,18.71
2022-12-01T19:15:36.069Z,18.67
2022-12-01T19:18:02.830Z,18.69
2022-12-01T19:20:29.521Z,18.69
2022-12-01T19:22:56.098Z,18.64
2022-12-01T19:25:22.816Z,18.66
2022-12-01T19:27:51.324Z,18.58
2022-12-01T19:30:17.956Z,18.62
2022-12-01T19:32:44.836Z,18.62
2022-12-01T19:35:11.465Z,18.62
2022-12-01T19:37:38.048Z,18.57
2022-12-01T19:40:04.803Z,18.58
2022-12-01T19:42:31.410Z,18.57
2022-12-01T19:44:58.764Z,18.56
2022-12-01T19:47:25.393Z,18.56
2022-12-01T19:49:51.982Z,18.56
2022-12-01T19:52:18.573Z,18.52
2022-12-01T19:54:45.189Z,18.52
2022-12-01T19:57:11.806Z,18.49
2022-12-01T19:59:38.411Z,18.49
2022-12-01T20:02:05.341Z,18.49
2022-12-01T20:04:32.245Z,18.48
2022-12-01T20:06:58.893Z,18.48
2022-12-01T20:09:29.934Z,18.43
2022-12-01T20:11:56.523Z,18.44
2022-12-01T20:14:23.146Z,18.42
2022-12-01T20:16:50.022Z,18.42
2022-12-01T20:19:16.702Z,18.46
2022-12-01T20:21:44.431Z,18.42
2022-12-01T20:24:22.232Z,18.40
2022-12-01T20:26:50.060Z,18.37
2022-12-01T20:29:21.815Z,18.40
2022-12-01T20:31:49.152Z,18.36
2022-12-01T20:34:17.893Z,18.38
2022-12-01T20:36:44.580Z,18.37
2022-12-01T20:39:13.164Z,18.38
2022-12-01T20:41:40.794Z,18.36
2022-12-01T20:44:08.485Z,18.35
2022-12-01T20:46:35.971Z,18.40
2022-12-01T20:49:02.956Z,18.43
2022-12-01T20:51:33.455Z,18.41
2022-12-01T20:54:26.657Z,18.45
2022-12-01T20:56:47.695Z,18.50
2022-12-01T20:59:14.451Z,18.58
2022-12-01T21:01:41.286Z,18.67
2022-12-01T21:04:09.014Z,18.75
2022-12-01T21:06:35.733Z,18.81
2022-12-01T21:09:03.559Z,18.85
2022-12-01T21:11:53.284Z,18.89
2022-12-01T21:14:24.641Z,18.95
2022-12-01T21:16:55.212Z,19.01
2022-12-01T21:19:24.694Z,19.07
2022-12-01T21:21:51.500Z,19.13
2022-12-01T21:24:19.915Z,19.18
2022-12-01T21:26:59.004Z,19.24
2022-12-01T21:29:28.301Z,19.31
2022-12-01T21:31:58.805Z,19.37
2022-12-01T21:34:26.862Z,19.43
2022-12-01T21:36:56.217Z,19.49
2022-12-01T21:39:25.133Z,19.56
2022-12-01T21:41:55.146Z,19.61
2022-12-01T21:44:22.660Z,19.66
2022-12-01T21:46:52.137Z,19.73
2022-12-01T21:49:21.456Z,19.77
2022-12-01T21:51:50.435Z,19.83
2022-12-01T21:54:20.705Z,19.89
2022-12-01T21:56:58.719Z,19.93
2022-12-01T21:59:25.561Z,20.00
2022-12-01T22:01:54.981Z,20.07
2022-12-01T22:04:23.500Z,20.15
2022-12-01T22:06:53.228Z,20.25
2022-12-01T22:09:22.877Z,20.30
2022-12-01T22:11:52.348Z,20.31
2022-12-01T22:14:21.293Z,20.36
2022-12-01T22:16:51.962Z,20.40
2022-12-01T22:19:22.761Z,20.44
2022-12-01T22:21:50.414Z,20.49
2022-12-01T22:24:27.577Z,20.54
2022-12-01T22:27:03.103Z,20.59
2022-12-01T22:29:32.137Z,20.65
2022-12-01T22:32:02.096Z,20.69
2022-12-01T22:34:28.875Z,20.74
2022-12-01T22:36:55.676Z,20.79
2022-12-01T22:39:30.196Z,20.83
2022-12-01T22:41:59.924Z,20.88
2022-12-01T22:44:28.217Z,20.92
2022-12-01T22:46:58.467Z,20.98
2022-12-01T22:49:25.663Z,21.03
2022-12-01T22:51:56.954Z,21.07
2022-12-01T22:54:33.325Z,21.10
2022-12-01T22:57:03.584Z,21.15
2022-12-01T22:59:42.943Z,21.18
2022-12-01T23:02:20.727Z,21.21
2022-12-01T23:04:49.571Z,21.24
2022-12-01T23:07:26.399Z,21.29
2022-12-01T23:09:53.234Z,21.32
2022-12-01T23:12:22.161Z,21.34
2022-12-01T23:14:50.739Z,21.38
2022-12-01T23:17:21.119Z,21.41
2022-12-01T23:19:49.369Z,21.44
2022-12-01T23:22:17.034Z,21.47
2022-12-01T23:24:45.043Z,21.51
2022-12-01T23:27:12.089Z,21.54
2022-12-01T23:29:38.962Z,21.58
2022-12-01T23:32:06.045Z,21.62
2022-12-01T23:34:34.183Z,21.66
2022-12-01T23:37:01.282Z,21.68
2022-12-01T23:39:31.371Z,21.71
2022-12-01T23:41:58.912Z,21.74
2022-12-01T23:44:29.126Z,21.77
2022-12-01T23:46:57.681Z,21.80
2022-12-01T23:49:27.831Z,21.81
2022-12-01T23:51:55.864Z,21.83
2022-12-01T23:54:28.366Z,21.86
2022-12-01T23:56:56.342Z,21.88
2022-12-01T23:59:23.202Z,21.91
